Impacts METAR Board
IDs:

KDEN - Denver Intl, CO, US

Updated at: 2300 UTC 01 Mar 2021
Potential Impact None Slight Moderate High
Time 01/11Z 01/12Z 01/13Z 01/14Z 01/15Z 01/16Z 01/17Z 01/18Z 01/19Z 01/20Z 01/21Z 01/22Z 01/23Z
Temp22 23 23 24 28 32 37 41 45 47 48 49 50
Dewpt5 4 4 3 4 7 10 11 14 13 14 15 14
Altim30.22 30.24 30.25 30.27 30.29 30.30 30.31 30.30 30.28 30.25 30.23 30.21 30.19
VIS10 10 10 10 10 10 10 10 10 10 10 10 10
CIG-- -- -- -- -- -- -- -- -- -- -- -- --
CoverCLRCLRCLRCLRCLRCLRCLRCLRCLRCLRCLRCLRCLR
FltCatVFRVFRVFRVFRVFRVFRVFRVFRVFRVFRVFRVFRVFR
WX--------------------------
WDir2202202102202202102200170160140160160
WSpd8 9 11 12 8 7 4 0 8 11 10 9 8
WGst-- -- -- -- -- -- -- -- -- -- -- -- --
Raw hourly METARs
KDEN 011053Z 22008KT 10SM CLR M06/M15 A3022 RMK AO2 SLP258 T10561150
KDEN 011153Z 22009KT 10SM CLR M05/M16 A3024 RMK AO2 SLP263 T10501156 11044 21061 53007
KDEN 011253Z 21011KT 10SM CLR M05/M16 A3025 RMK AO2 SLP277 T10501156
KDEN 011353Z 22012KT 10SM CLR M04/M16 A3027 RMK AO2 SLP281 T10441161
KDEN 011453Z 22008KT 10SM CLR M02/M16 A3029 RMK AO2 SLP282 T10221156 53014
KDEN 011553Z 21007KT 10SM CLR 00/M14 A3030 RMK AO2 SLP285 T00001139
KDEN 011653Z 22004KT 10SM CLR 03/M12 A3031 RMK AO2 SLP282 T00281122
KDEN 011753Z 00000KT 10SM CLR 05/M12 A3030 RMK AO2 SLP275 T00501117 10050 21061 50003
KDEN 011853Z 17008KT 10SM CLR 07/M10 A3028 RMK AO2 SLP261 T00721100
KDEN 011953Z 16011KT 10SM CLR 08/M11 A3025 RMK AO2 SLP245 T00831106
KDEN 012053Z 14010KT 10SM CLR 09/M10 A3023 RMK AO2 SLP240 T00891100 56022
KDEN 012153Z 16009KT 10SM CLR 09/M09 A3021 RMK AO2 SLP233 T00941094
KDEN 012253Z 16008KT 10SM CLR 10/M10 A3019 RMK AO2 SLP225 T01001100



Page loaded:  23:04 UTC  |   03:04 PM Pacific  |   04:04 PM Mountain  |   05:04 PM Central  |   06:04 PM Eastern

 

ADVISORIES

FORECASTS

FORECASTS

OBSERVATIONS

USER TOOLS

ABOUT US